NYT76 VNKT-VNPL
Flight info
| Callsign | NYT76 |
|---|---|
| Flight time | 0h 52m |
| Altitude | 13500 |
| Route | IGRIS DCT KIMTI DCT |
| Aircraft | DHC6/L-VGD/C |
Departure
| Time | 2026-05-07 21:06 |
|---|---|
| Airport | Tribhuvan International Airport (VNKT) |
Arrival
| Time | 2026-05-07 21:58 |
|---|---|
| Airport | Phaplu Airport (VNPL) |
| Time | Latitude | Longitude | Altitude | Speed | Heading |
|---|---|---|---|---|---|
| 2026-05-07 19:52 | 27.70643 | 85.35980 | 4399 ft | 0 kts | 72° |
| 2026-05-07 20:56 | 27.70636 | 85.36020 | 4399 ft | 12 kts | 144° |
| 2026-05-07 20:56 | 27.70551 | 85.36056 | 4399 ft | 13 kts | 162° |
| 2026-05-07 20:56 | 27.70476 | 85.36067 | 4399 ft | 10 kts | 248° |
| 2026-05-07 20:57 | 27.70441 | 85.36017 | 4399 ft | 9 kts | 163° |
| 2026-05-07 20:57 | 27.70374 | 85.36042 | 4399 ft | 13 kts | 162° |
| 2026-05-07 20:57 | 27.70285 | 85.36074 | 4399 ft | 12 kts | 171° |
| 2026-05-07 20:57 | 27.70205 | 85.36044 | 4399 ft | 15 kts | 201° |
| 2026-05-07 20:58 | 27.70097 | 85.35995 | 4399 ft | 17 kts | 200° |
| 2026-05-07 20:58 | 27.69989 | 85.35946 | 4399 ft | 17 kts | 204° |
| 2026-05-07 20:58 | 27.69878 | 85.35894 | 4399 ft | 17 kts | 205° |
| 2026-05-07 20:58 | 27.69773 | 85.35852 | 4399 ft | 18 kts | 195° |
| 2026-05-07 20:59 | 27.69667 | 85.35801 | 4399 ft | 15 kts | 204° |
| 2026-05-07 20:59 | 27.69567 | 85.35752 | 4399 ft | 17 kts | 195° |
| 2026-05-07 20:59 | 27.69456 | 85.35704 | 4399 ft | 17 kts | 202° |
| 2026-05-07 20:59 | 27.69357 | 85.35660 | 4399 ft | 15 kts | 200° |
| 2026-05-07 21:00 | 27.69255 | 85.35612 | 4399 ft | 15 kts | 203° |
| 2026-05-07 21:00 | 27.69172 | 85.35575 | 4399 ft | 11 kts | 201° |
| 2026-05-07 21:00 | 27.69126 | 85.35554 | 4399 ft | 0 kts | 202° |
| 2026-05-07 21:01 | 27.69107 | 85.35551 | 4399 ft | 7 kts | 174° |
| 2026-05-07 21:01 | 27.69094 | 85.35558 | 4399 ft | 0 kts | 140° |
| 2026-05-07 21:02 | 27.69092 | 85.35559 | 4399 ft | 0 kts | 140° |
| 2026-05-07 21:02 | 27.69073 | 85.35591 | 4399 ft | 13 kts | 118° |
| 2026-05-07 21:03 | 27.69074 | 85.35650 | 4399 ft | 6 kts | 23° |
| 2026-05-07 21:03 | 27.69076 | 85.35651 | 4399 ft | 0 kts | 22° |
| 2026-05-07 21:04 | 27.69077 | 85.35651 | 4399 ft | 0 kts | 22° |
| 2026-05-07 21:05 | 27.69090 | 85.35657 | 4399 ft | 10 kts | 22° |
| 2026-05-07 21:05 | 27.69408 | 85.35801 | 4399 ft | 84 kts | 23° |
| 2026-05-07 21:05 | 27.70054 | 85.36094 | 4521 ft | 105 kts | 20° |
| 2026-05-07 21:05 | 27.70779 | 85.36384 | 4768 ft | 118 kts | 20° |
| 2026-05-07 21:06 | 27.71582 | 85.36661 | 5059 ft | 120 kts | 18° |
| 2026-05-07 21:06 | 27.72358 | 85.36912 | 5317 ft | 115 kts | 18° |
| 2026-05-07 21:06 | 27.73136 | 85.37190 | 5552 ft | 117 kts | 28° |
| 2026-05-07 21:06 | 27.73567 | 85.37941 | 5712 ft | 123 kts | 91° |
| 2026-05-07 21:07 | 27.73150 | 85.38743 | 6023 ft | 125 kts | 150° |
| 2026-05-07 21:07 | 27.72375 | 85.39143 | 6403 ft | 121 kts | 161° |
| 2026-05-07 21:07 | 27.71592 | 85.39493 | 6749 ft | 121 kts | 161° |
| 2026-05-07 21:07 | 27.70808 | 85.39847 | 7042 ft | 122 kts | 161° |
| 2026-05-07 21:08 | 27.70023 | 85.40203 | 7261 ft | 122 kts | 161° |
| 2026-05-07 21:08 | 27.69237 | 85.40558 | 7483 ft | 122 kts | 161° |
| 2026-05-07 21:08 | 27.68449 | 85.40912 | 7699 ft | 122 kts | 161° |
| 2026-05-07 21:08 | 27.67665 | 85.41265 | 7947 ft | 121 kts | 161° |
| 2026-05-07 21:09 | 27.66890 | 85.41615 | 8248 ft | 119 kts | 161° |
| 2026-05-07 21:09 | 27.66127 | 85.41959 | 8519 ft | 118 kts | 161° |
| 2026-05-07 21:09 | 27.65413 | 85.42435 | 8734 ft | 122 kts | 129° |
| 2026-05-07 21:09 | 27.65275 | 85.43365 | 8930 ft | 124 kts | 82° |
| 2026-05-07 21:10 | 27.65351 | 85.44310 | 9202 ft | 120 kts | 92° |
| 2026-05-07 21:10 | 27.65257 | 85.45238 | 9438 ft | 119 kts | 102° |
| 2026-05-07 21:10 | 27.65072 | 85.46147 | 9665 ft | 119 kts | 106° |
| 2026-05-07 21:10 | 27.64855 | 85.47051 | 9894 ft | 120 kts | 107° |
| 2026-05-07 21:11 | 27.64631 | 85.47957 | 10146 ft | 121 kts | 107° |
| 2026-05-07 21:11 | 27.64409 | 85.48869 | 10401 ft | 121 kts | 107° |
| 2026-05-07 21:11 | 27.63980 | 85.50699 | 10841 ft | 121 kts | 106° |
| 2026-05-07 21:12 | 27.63778 | 85.51620 | 10963 ft | 121 kts | 103° |
| 2026-05-07 21:12 | 27.63591 | 85.52545 | 11089 ft | 121 kts | 106° |
| 2026-05-07 21:12 | 27.63385 | 85.53465 | 11213 ft | 121 kts | 106° |
| 2026-05-07 21:12 | 27.63173 | 85.54399 | 11337 ft | 122 kts | 106° |
| 2026-05-07 21:13 | 27.62964 | 85.55326 | 11457 ft | 122 kts | 106° |
| 2026-05-07 21:13 | 27.62755 | 85.56256 | 11582 ft | 123 kts | 106° |
| 2026-05-07 21:13 | 27.62546 | 85.57187 | 11705 ft | 123 kts | 106° |
| 2026-05-07 21:13 | 27.62338 | 85.58119 | 11827 ft | 123 kts | 106° |
| 2026-05-07 21:14 | 27.62130 | 85.59052 | 11946 ft | 123 kts | 106° |
| 2026-05-07 21:14 | 27.61923 | 85.59985 | 12064 ft | 123 kts | 106° |
| 2026-05-07 21:14 | 27.61716 | 85.60919 | 12181 ft | 123 kts | 106° |
| 2026-05-07 21:14 | 27.61509 | 85.61854 | 12296 ft | 123 kts | 106° |
| 2026-05-07 21:15 | 27.61302 | 85.62788 | 12410 ft | 123 kts | 107° |
| 2026-05-07 21:15 | 27.61148 | 85.63733 | 12484 ft | 126 kts | 83° |
| 2026-05-07 21:15 | 27.61317 | 85.64695 | 12603 ft | 125 kts | 89° |
| 2026-05-07 21:15 | 27.61303 | 85.65666 | 12722 ft | 124 kts | 94° |
| 2026-05-07 21:16 | 27.61262 | 85.66644 | 12833 ft | 124 kts | 95° |
| 2026-05-07 21:16 | 27.61219 | 85.67609 | 12939 ft | 124 kts | 95° |
| 2026-05-07 21:16 | 27.61176 | 85.68576 | 13043 ft | 124 kts | 95° |
| 2026-05-07 21:16 | 27.61131 | 85.69541 | 13146 ft | 124 kts | 95° |
| 2026-05-07 21:17 | 27.61079 | 85.70509 | 13247 ft | 124 kts | 95° |
| 2026-05-07 21:17 | 27.61026 | 85.71477 | 13347 ft | 124 kts | 96° |
| 2026-05-07 21:17 | 27.60944 | 85.72439 | 13444 ft | 124 kts | 99° |
| 2026-05-07 21:17 | 27.60858 | 85.73408 | 13517 ft | 126 kts | 97° |
| 2026-05-07 21:18 | 27.60763 | 85.74423 | 13511 ft | 134 kts | 99° |
| 2026-05-07 21:18 | 27.60644 | 85.75476 | 13496 ft | 137 kts | 100° |
| 2026-05-07 21:18 | 27.60498 | 85.76546 | 13489 ft | 139 kts | 102° |
| 2026-05-07 21:18 | 27.60327 | 85.77620 | 13486 ft | 140 kts | 103° |
| 2026-05-07 21:19 | 27.60133 | 85.78698 | 13485 ft | 141 kts | 104° |
| 2026-05-07 21:19 | 27.59922 | 85.79777 | 13483 ft | 141 kts | 105° |
| 2026-05-07 21:19 | 27.59695 | 85.80873 | 13482 ft | 142 kts | 106° |
| 2026-05-07 21:19 | 27.59465 | 85.81954 | 13481 ft | 142 kts | 106° |
| 2026-05-07 21:20 | 27.59232 | 85.83036 | 13480 ft | 142 kts | 106° |
| 2026-05-07 21:20 | 27.59002 | 85.84121 | 13479 ft | 143 kts | 106° |
| 2026-05-07 21:20 | 27.58776 | 85.85208 | 13479 ft | 143 kts | 105° |
| 2026-05-07 21:20 | 27.58544 | 85.86296 | 13478 ft | 143 kts | 104° |
| 2026-05-07 21:21 | 27.58315 | 85.87385 | 13476 ft | 143 kts | 101° |
| 2026-05-07 21:21 | 27.58142 | 85.88477 | 13518 ft | 140 kts | 110° |
| 2026-05-07 21:21 | 27.57666 | 85.89416 | 13517 ft | 140 kts | 131° |
| 2026-05-07 21:21 | 27.56921 | 85.90113 | 13505 ft | 140 kts | 152° |
| 2026-05-07 21:22 | 27.56023 | 85.90472 | 13528 ft | 137 kts | 172° |
| 2026-05-07 21:22 | 27.55069 | 85.90477 | 13505 ft | 138 kts | 190° |
| 2026-05-07 21:22 | 27.54132 | 85.90495 | 13577 ft | 134 kts | 169° |
| 2026-05-07 21:22 | 27.53234 | 85.90892 | 13464 ft | 144 kts | 152° |
| 2026-05-07 21:23 | 27.52450 | 85.91542 | 13617 ft | 133 kts | 139° |
| 2026-05-07 21:23 | 27.51838 | 85.92327 | 13596 ft | 138 kts | 127° |
| 2026-05-07 21:23 | 27.51326 | 85.93270 | 13563 ft | 141 kts | 118° |
| 2026-05-07 21:23 | 27.50928 | 85.94248 | 13659 ft | 135 kts | 112° |
| 2026-05-07 21:24 | 27.50609 | 85.95259 | 13622 ft | 140 kts | 108° |
| 2026-05-07 21:24 | 27.50384 | 85.96318 | 13661 ft | 138 kts | 92° |
| 2026-05-07 21:24 | 27.50737 | 85.97303 | 13577 ft | 144 kts | 50° |
| 2026-05-07 21:24 | 27.51436 | 85.98143 | 13601 ft | 131 kts | 43° |
| 2026-05-07 21:25 | 27.52079 | 85.98843 | 13593 ft | 142 kts | 41° |
| 2026-05-07 21:25 | 27.52838 | 85.99619 | 13437 ft | 153 kts | 42° |
| 2026-05-07 21:25 | 27.53613 | 86.00448 | 13276 ft | 161 kts | 44° |
| 2026-05-07 21:25 | 27.54211 | 86.01524 | 13169 ft | 160 kts | 79° |
| 2026-05-07 21:26 | 27.54356 | 86.02666 | 13478 ft | 136 kts | 79° |
| 2026-05-07 21:26 | 27.54555 | 86.03698 | 13496 ft | 137 kts | 79° |
| 2026-05-07 21:26 | 27.54449 | 86.04756 | 13473 ft | 139 kts | 110° |
| 2026-05-07 21:26 | 27.54048 | 86.05747 | 13467 ft | 140 kts | 119° |
| 2026-05-07 21:27 | 27.53545 | 86.06680 | 13462 ft | 140 kts | 124° |
| 2026-05-07 21:27 | 27.52977 | 86.07576 | 13459 ft | 141 kts | 128° |
| 2026-05-07 21:27 | 27.52373 | 86.08441 | 13458 ft | 141 kts | 130° |
| 2026-05-07 21:27 | 27.51750 | 86.09297 | 13456 ft | 141 kts | 130° |
| 2026-05-07 21:28 | 27.51132 | 86.10156 | 13455 ft | 141 kts | 129° |
| 2026-05-07 21:28 | 27.50533 | 86.11033 | 13454 ft | 142 kts | 127° |
| 2026-05-07 21:28 | 27.49967 | 86.11941 | 13453 ft | 142 kts | 124° |
| 2026-05-07 21:28 | 27.49447 | 86.12886 | 13451 ft | 142 kts | 121° |
| 2026-05-07 21:29 | 27.48978 | 86.13881 | 13450 ft | 142 kts | 117° |
| 2026-05-07 21:29 | 27.48583 | 86.14886 | 13449 ft | 143 kts | 112° |
| 2026-05-07 21:29 | 27.48244 | 86.15947 | 13448 ft | 143 kts | 108° |
| 2026-05-07 21:29 | 27.47975 | 86.17021 | 13446 ft | 143 kts | 104° |
| 2026-05-07 21:30 | 27.47768 | 86.18116 | 13445 ft | 143 kts | 101° |
| 2026-05-07 21:30 | 27.47614 | 86.19223 | 13444 ft | 143 kts | 98° |
| 2026-05-07 21:30 | 27.47504 | 86.20339 | 13446 ft | 143 kts | 96° |
| 2026-05-07 21:30 | 27.47537 | 86.21454 | 13459 ft | 143 kts | 83° |
| 2026-05-07 21:31 | 27.47699 | 86.22555 | 13463 ft | 143 kts | 79° |
| 2026-05-07 21:31 | 27.47910 | 86.23646 | 13463 ft | 143 kts | 77° |
| 2026-05-07 21:31 | 27.48144 | 86.24734 | 13462 ft | 143 kts | 76° |
| 2026-05-07 21:31 | 27.48379 | 86.25824 | 13460 ft | 144 kts | 77° |
| 2026-05-07 21:32 | 27.48587 | 86.26924 | 13459 ft | 144 kts | 82° |
| 2026-05-07 21:32 | 27.48686 | 86.28042 | 13458 ft | 144 kts | 86° |
| 2026-05-07 21:32 | 27.48760 | 86.29179 | 13457 ft | 144 kts | 86° |
| 2026-05-07 21:32 | 27.48833 | 86.30303 | 13455 ft | 144 kts | 86° |
| 2026-05-07 21:33 | 27.48904 | 86.31423 | 13470 ft | 143 kts | 86° |
| 2026-05-07 21:33 | 27.48975 | 86.32523 | 13520 ft | 139 kts | 86° |
| 2026-05-07 21:33 | 27.49044 | 86.33608 | 13537 ft | 139 kts | 86° |
| 2026-05-07 21:33 | 27.49113 | 86.34696 | 13540 ft | 140 kts | 86° |
| 2026-05-07 21:34 | 27.49183 | 86.35794 | 13539 ft | 141 kts | 86° |
| 2026-05-07 21:34 | 27.49253 | 86.36895 | 13537 ft | 142 kts | 86° |
| 2026-05-07 21:34 | 27.49324 | 86.38004 | 13552 ft | 141 kts | 86° |
| 2026-05-07 21:34 | 27.49394 | 86.39096 | 13570 ft | 140 kts | 86° |
| 2026-05-07 21:35 | 27.49465 | 86.40196 | 13572 ft | 141 kts | 86° |
| 2026-05-07 21:35 | 27.49535 | 86.41299 | 13571 ft | 142 kts | 86° |
| 2026-05-07 21:35 | 27.49606 | 86.42406 | 13569 ft | 142 kts | 86° |
| 2026-05-07 21:35 | 27.49677 | 86.43517 | 13570 ft | 142 kts | 86° |
| 2026-05-07 21:36 | 27.49747 | 86.44638 | 13566 ft | 142 kts | 86° |
| 2026-05-07 21:36 | 27.49817 | 86.45739 | 13562 ft | 141 kts | 86° |
| 2026-05-07 21:36 | 27.49886 | 86.46820 | 13562 ft | 141 kts | 88° |
| 2026-05-07 21:36 | 27.49973 | 86.47936 | 13559 ft | 142 kts | 86° |
| 2026-05-07 21:37 | 27.50057 | 86.49043 | 13559 ft | 142 kts | 86° |
| 2026-05-07 21:37 | 27.50132 | 86.50155 | 13559 ft | 143 kts | 86° |
| 2026-05-07 21:37 | 27.50205 | 86.51267 | 13562 ft | 143 kts | 86° |
| 2026-05-07 21:37 | 27.50278 | 86.52382 | 13554 ft | 143 kts | 86° |
| 2026-05-07 21:38 | 27.50352 | 86.53499 | 13555 ft | 144 kts | 86° |
| 2026-05-07 21:38 | 27.50427 | 86.54620 | 13554 ft | 144 kts | 86° |
| 2026-05-07 21:38 | 27.50501 | 86.55745 | 13552 ft | 144 kts | 86° |
| 2026-05-07 21:38 | 27.50576 | 86.56870 | 13551 ft | 144 kts | 86° |
| 2026-05-07 21:39 | 27.50652 | 86.58010 | 13549 ft | 145 kts | 86° |
| 2026-05-07 21:39 | 27.50727 | 86.59138 | 13548 ft | 145 kts | 86° |
| 2026-05-07 21:39 | 27.50802 | 86.60267 | 13547 ft | 145 kts | 86° |
| 2026-05-07 21:39 | 27.50878 | 86.61396 | 13546 ft | 145 kts | 86° |
| 2026-05-07 21:40 | 27.50953 | 86.62524 | 13572 ft | 142 kts | 86° |
| 2026-05-07 21:40 | 27.51027 | 86.63600 | 13343 ft | 136 kts | 86° |
| 2026-05-07 21:40 | 27.51100 | 86.64656 | 13067 ft | 135 kts | 86° |
| 2026-05-07 21:40 | 27.51173 | 86.65707 | 12790 ft | 135 kts | 86° |
| 2026-05-07 21:41 | 27.51439 | 86.66700 | 12473 ft | 136 kts | 49° |
| 2026-05-07 21:41 | 27.52274 | 86.67140 | 12166 ft | 134 kts | 7° |
| 2026-05-07 21:41 | 27.53186 | 86.67243 | 11931 ft | 131 kts | 2° |
| 2026-05-07 21:41 | 27.54090 | 86.67318 | 11698 ft | 130 kts | 2° |
| 2026-05-07 21:42 | 27.54989 | 86.67389 | 11465 ft | 129 kts | 2° |
| 2026-05-07 21:42 | 27.55894 | 86.67461 | 11224 ft | 129 kts | 2° |
| 2026-05-07 21:42 | 27.56786 | 86.67529 | 10990 ft | 128 kts | 2° |
| 2026-05-07 21:42 | 27.57679 | 86.67596 | 10799 ft | 128 kts | 2° |
| 2026-05-07 21:43 | 27.58568 | 86.67662 | 10614 ft | 128 kts | 2° |
| 2026-05-07 21:43 | 27.59454 | 86.67728 | 10457 ft | 126 kts | 2° |
| 2026-05-07 21:43 | 27.60287 | 86.67790 | 10495 ft | 113 kts | 4° |
| 2026-05-07 21:43 | 27.61039 | 86.67901 | 10490 ft | 103 kts | 5° |
| 2026-05-07 21:44 | 27.61752 | 86.67971 | 10447 ft | 97 kts | 356° |
| 2026-05-07 21:44 | 27.62410 | 86.67798 | 10632 ft | 99 kts | 342° |
| 2026-05-07 21:44 | 27.63167 | 86.67747 | 10692 ft | 117 kts | 19° |
| 2026-05-07 21:44 | 27.63841 | 86.68344 | 10659 ft | 135 kts | 54° |
| 2026-05-07 21:45 | 27.64223 | 86.69202 | 11143 ft | 102 kts | 66° |
| 2026-05-07 21:45 | 27.64439 | 86.69974 | 11362 ft | 110 kts | 76° |
| 2026-05-07 21:45 | 27.64834 | 86.70776 | 11480 ft | 122 kts | 48° |
| 2026-05-07 21:45 | 27.65412 | 86.71495 | 11670 ft | 121 kts | 47° |
| 2026-05-07 21:46 | 27.65964 | 86.72161 | 11912 ft | 114 kts | 43° |
| 2026-05-07 21:46 | 27.66526 | 86.72761 | 12120 ft | 108 kts | 41° |
| 2026-05-07 21:46 | 27.67182 | 86.73267 | 12140 ft | 121 kts | 21° |
| 2026-05-07 21:46 | 27.68027 | 86.73503 | 12161 ft | 130 kts | 8° |
| 2026-05-07 21:47 | 27.68875 | 86.73354 | 12316 ft | 122 kts | 325° |
| 2026-05-07 21:47 | 27.69225 | 86.72574 | 12399 ft | 117 kts | 262° |
| 2026-05-07 21:47 | 27.68722 | 86.71884 | 12340 ft | 128 kts | 204° |
| 2026-05-07 21:47 | 27.67831 | 86.71562 | 12280 ft | 136 kts | 200° |
| 2026-05-07 21:48 | 27.66942 | 86.71252 | 12382 ft | 131 kts | 198° |
| 2026-05-07 21:48 | 27.66072 | 86.70972 | 12453 ft | 130 kts | 197° |
| 2026-05-07 21:48 | 27.65208 | 86.70695 | 12510 ft | 129 kts | 197° |
| 2026-05-07 21:48 | 27.64619 | 86.70506 | 12518 ft | 132 kts | 197° |
| 2026-05-07 21:49 | 27.63726 | 86.70219 | 12514 ft | 135 kts | 197° |
| 2026-05-07 21:49 | 27.62814 | 86.69926 | 12511 ft | 138 kts | 197° |
| 2026-05-07 21:49 | 27.61886 | 86.69628 | 12509 ft | 140 kts | 197° |
| 2026-05-07 21:49 | 27.60949 | 86.69322 | 12508 ft | 141 kts | 200° |
| 2026-05-07 21:50 | 27.60234 | 86.68620 | 12504 ft | 140 kts | 243° |
| 2026-05-07 21:50 | 27.59895 | 86.67601 | 12513 ft | 140 kts | 252° |
| 2026-05-07 21:50 | 27.59609 | 86.66548 | 12510 ft | 141 kts | 253° |
| 2026-05-07 21:50 | 27.59326 | 86.65490 | 12510 ft | 141 kts | 253° |
| 2026-05-07 21:51 | 27.59042 | 86.64428 | 12510 ft | 142 kts | 253° |
| 2026-05-07 21:51 | 27.58754 | 86.63350 | 12511 ft | 142 kts | 253° |
| 2026-05-07 21:51 | 27.58444 | 86.62297 | 12512 ft | 142 kts | 248° |
| 2026-05-07 21:51 | 27.57925 | 86.61361 | 12512 ft | 142 kts | 229° |
| 2026-05-07 21:52 | 27.57230 | 86.60577 | 12542 ft | 136 kts | 225° |
| 2026-05-07 21:52 | 27.56552 | 86.59872 | 12275 ft | 132 kts | 220° |
| 2026-05-07 21:52 | 27.55746 | 86.59395 | 11981 ft | 131 kts | 203° |
| 2026-05-07 21:52 | 27.54894 | 86.59039 | 11688 ft | 130 kts | 201° |
| 2026-05-07 21:53 | 27.54044 | 86.58693 | 11398 ft | 130 kts | 201° |
| 2026-05-07 21:53 | 27.53210 | 86.58315 | 11101 ft | 130 kts | 204° |
| 2026-05-07 21:53 | 27.52384 | 86.57923 | 10814 ft | 129 kts | 204° |
| 2026-05-07 21:53 | 27.51578 | 86.57504 | 10575 ft | 124 kts | 214° |
| 2026-05-07 21:54 | 27.50950 | 86.56877 | 10332 ft | 121 kts | 225° |
| 2026-05-07 21:54 | 27.50394 | 86.56202 | 10185 ft | 106 kts | 230° |
| 2026-05-07 21:54 | 27.49902 | 86.55664 | 10005 ft | 98 kts | 206° |
| 2026-05-07 21:54 | 27.49231 | 86.55706 | 9908 ft | 105 kts | 145° |
| 2026-05-07 21:55 | 27.48960 | 86.56430 | 9885 ft | 108 kts | 83° |
| 2026-05-07 21:55 | 27.49322 | 86.57214 | 9656 ft | 120 kts | 54° |
| 2026-05-07 21:55 | 27.49870 | 86.57878 | 9529 ft | 108 kts | 39° |
| 2026-05-07 21:55 | 27.50467 | 86.58300 | 9309 ft | 96 kts | 27° |
| 2026-05-07 21:56 | 27.51068 | 86.58653 | 9271 ft | 89 kts | 24° |
| 2026-05-07 21:56 | 27.51617 | 86.58924 | 9086 ft | 98 kts | 21° |
| 2026-05-07 21:56 | 27.52180 | 86.59233 | 8953 ft | 83 kts | 34° |
| 2026-05-07 21:56 | 27.52640 | 86.59626 | 8817 ft | 90 kts | 28° |
| 2026-05-07 21:57 | 27.53207 | 86.59590 | 8675 ft | 90 kts | 311° |
| 2026-05-07 21:57 | 27.53067 | 86.59066 | 8444 ft | 84 kts | 199° |
| 2026-05-07 21:57 | 27.52523 | 86.58848 | 8202 ft | 80 kts | 200° |
| 2026-05-07 21:57 | 27.52011 | 86.58608 | 8078 ft | 71 kts | 202° |
| 2026-05-07 21:58 | 27.51716 | 86.58474 | 8077 ft | 8 kts | 203° |
| 2026-05-07 21:58 | 27.51719 | 86.58435 | 8077 ft | 3 kts | 26° |
| 2026-05-07 21:58 | 27.51725 | 86.58439 | 8077 ft | 0 kts | 30° |
| 2026-05-07 21:58 | 27.51727 | 86.58440 | 8077 ft | 1 kts | 32° |
| 2026-05-07 21:59 | 27.51747 | 86.58444 | 8077 ft | 2 kts | 330° |
| 2026-05-07 21:59 | 27.51744 | 86.58425 | 8077 ft | 3 kts | 190° |
| 2026-05-07 21:59 | 27.51734 | 86.58421 | 8077 ft | 0 kts | 205° |